sensor_id;sensor_type;location;lat;lon;timestamp;P1;durP1;ratioP1;P2;durP2;ratioP2
67721;SDS011;58309;45.292;11.820;2023-03-16T00:01:47;6.55;;;4.78;;
67721;SDS011;58309;45.292;11.820;2023-03-16T00:04:12;7.07;;;5.38;;
67721;SDS011;58309;45.292;11.820;2023-03-16T00:06:38;6.40;;;5.22;;
67721;SDS011;58309;45.292;11.820;2023-03-16T00:09:03;8.40;;;6.00;;
67721;SDS011;58309;45.292;11.820;2023-03-16T00:11:29;8.63;;;5.60;;
67721;SDS011;58309;45.292;11.820;2023-03-16T00:13:55;7.68;;;5.28;;
67721;SDS011;58309;45.292;11.820;2023-03-16T00:16:20;7.15;;;5.22;;
67721;SDS011;58309;45.292;11.820;2023-03-16T00:18:46;7.30;;;5.50;;
67721;SDS011;58309;45.292;11.820;2023-03-16T00:21:12;7.47;;;5.22;;
67721;SDS011;58309;45.292;11.820;2023-03-16T00:23:38;8.32;;;5.15;;
67721;SDS011;58309;45.292;11.820;2023-03-16T00:26:05;7.28;;;5.20;;
67721;SDS011;58309;45.292;11.820;2023-03-16T00:28:32;6.15;;;5.28;;
67721;SDS011;58309;45.292;11.820;2023-03-16T00:31:06;7.65;;;4.93;;
67721;SDS011;58309;45.292;11.820;2023-03-16T00:33:36;7.22;;;5.28;;
67721;SDS011;58309;45.292;11.820;2023-03-16T00:36:07;7.45;;;5.28;;
67721;SDS011;58309;45.292;11.820;2023-03-16T00:38:42;7.68;;;5.40;;
67721;SDS011;58309;45.292;11.820;2023-03-16T00:41:13;10.73;;;5.97;;
67721;SDS011;58309;45.292;11.820;2023-03-16T00:43:40;9.02;;;5.88;;
67721;SDS011;58309;45.292;11.820;2023-03-16T00:46:13;14.50;;;6.38;;
67721;SDS011;58309;45.292;11.820;2023-03-16T00:48:40;12.90;;;6.22;;
67721;SDS011;58309;45.292;11.820;2023-03-16T00:51:08;25.23;;;8.60;;
67721;SDS011;58309;45.292;11.820;2023-03-16T00:53:37;17.88;;;7.18;;
67721;SDS011;58309;45.292;11.820;2023-03-16T00:56:04;20.63;;;8.18;;
67721;SDS011;58309;45.292;11.820;2023-03-16T00:58:30;38.25;;;11.80;;
67721;SDS011;58309;45.292;11.820;2023-03-16T01:01:18;31.75;;;10.52;;
67721;SDS011;58309;45.292;11.820;2023-03-16T01:03:44;28.98;;;10.43;;
67721;SDS011;58309;45.292;11.820;2023-03-16T01:06:12;27.83;;;10.07;;
67721;SDS011;58309;45.292;11.820;2023-03-16T01:08:41;22.52;;;9.20;;
67721;SDS011;58309;45.292;11.820;2023-03-16T01:11:09;27.90;;;9.95;;
67721;SDS011;58309;45.292;11.820;2023-03-16T01:13:37;21.38;;;8.00;;
67721;SDS011;58309;45.292;11.820;2023-03-16T01:16:03;18.50;;;7.88;;
67721;SDS011;58309;45.292;11.820;2023-03-16T01:18:29;18.45;;;7.18;;
67721;SDS011;58309;45.292;11.820;2023-03-16T01:20:58;15.55;;;6.53;;
67721;SDS011;58309;45.292;11.820;2023-03-16T01:23:27;16.88;;;6.35;;
67721;SDS011;58309;45.292;11.820;2023-03-16T01:25:57;16.17;;;6.10;;
67721;SDS011;58309;45.292;11.820;2023-03-16T01:28:24;12.85;;;5.85;;
67721;SDS011;58309;45.292;11.820;2023-03-16T01:30:52;17.50;;;6.47;;
67721;SDS011;58309;45.292;11.820;2023-03-16T01:33:23;14.07;;;5.95;;
67721;SDS011;58309;45.292;11.820;2023-03-16T01:35:54;11.30;;;6.00;;
67721;SDS011;58309;45.292;11.820;2023-03-16T01:38:20;13.73;;;6.00;;
67721;SDS011;58309;45.292;11.820;2023-03-16T01:40:46;9.65;;;5.93;;
67721;SDS011;58309;45.292;11.820;2023-03-16T01:43:15;8.77;;;5.57;;
67721;SDS011;58309;45.292;11.820;2023-03-16T01:51:10;9.30;;;6.03;;
67721;SDS011;58309;45.292;11.820;2023-03-16T01:53:38;11.52;;;6.10;;
67721;SDS011;58309;45.292;11.820;2023-03-16T01:56:09;7.97;;;6.40;;
67721;SDS011;58309;45.292;11.820;2023-03-16T01:58:36;10.20;;;8.15;;
67721;SDS011;58309;45.292;11.820;2023-03-16T02:01:03;11.95;;;8.23;;
67721;SDS011;58309;45.292;11.820;2023-03-16T02:03:29;16.38;;;12.10;;
67721;SDS011;58309;45.292;11.820;2023-03-16T02:06:00;11.73;;;7.97;;
67721;SDS011;58309;45.292;11.820;2023-03-16T02:08:30;10.20;;;6.93;;
67721;SDS011;58309;45.292;11.820;2023-03-16T02:10:57;9.85;;;7.97;;
67721;SDS011;58309;45.292;11.820;2023-03-16T02:13:24;9.57;;;7.32;;
67721;SDS011;58309;45.292;11.820;2023-03-16T02:15:50;9.23;;;7.28;;
67721;SDS011;58309;45.292;11.820;2023-03-16T02:18:17;11.38;;;8.43;;
67721;SDS011;58309;45.292;11.820;2023-03-16T02:23:35;11.30;;;8.93;;
67721;SDS011;58309;45.292;11.820;2023-03-16T02:31:25;10.60;;;8.45;;
67721;SDS011;58309;45.292;11.820;2023-03-16T02:33:51;11.30;;;8.82;;
67721;SDS011;58309;45.292;11.820;2023-03-16T02:36:18;11.85;;;9.10;;
67721;SDS011;58309;45.292;11.820;2023-03-16T02:38:44;15.93;;;8.13;;
67721;SDS011;58309;45.292;11.820;2023-03-16T02:41:11;11.57;;;8.20;;
67721;SDS011;58309;45.292;11.820;2023-03-16T02:43:40;13.50;;;8.93;;
67721;SDS011;58309;45.292;11.820;2023-03-16T02:46:34;15.95;;;9.60;;
67721;SDS011;58309;45.292;11.820;2023-03-16T02:51:35;17.15;;;10.48;;
67721;SDS011;58309;45.292;11.820;2023-03-16T02:54:01;22.23;;;10.35;;
67721;SDS011;58309;45.292;11.820;2023-03-16T02:56:27;13.50;;;9.90;;
67721;SDS011;58309;45.292;11.820;2023-03-16T02:58:53;12.70;;;9.60;;
67721;SDS011;58309;45.292;11.820;2023-03-16T03:01:21;13.43;;;9.60;;
67721;SDS011;58309;45.292;11.820;2023-03-16T03:03:47;13.70;;;9.75;;
67721;SDS011;58309;45.292;11.820;2023-03-16T03:06:12;14.93;;;9.82;;
67721;SDS011;58309;45.292;11.820;2023-03-16T03:08:38;12.02;;;9.45;;
67721;SDS011;58309;45.292;11.820;2023-03-16T03:11:03;15.05;;;9.88;;
67721;SDS011;58309;45.292;11.820;2023-03-16T03:13:29;15.68;;;9.18;;
67721;SDS011;58309;45.292;11.820;2023-03-16T03:15:55;10.60;;;8.98;;
67721;SDS011;58309;45.292;11.820;2023-03-16T03:18:21;10.98;;;8.88;;
67721;SDS011;58309;45.292;11.820;2023-03-16T03:20:49;12.98;;;8.57;;
67721;SDS011;58309;45.292;11.820;2023-03-16T03:23:14;11.00;;;8.27;;
67721;SDS011;58309;45.292;11.820;2023-03-16T03:25:41;10.57;;;8.18;;
67721;SDS011;58309;45.292;11.820;2023-03-16T03:28:07;10.88;;;8.00;;
67721;SDS011;58309;45.292;11.820;2023-03-16T03:30:33;13.32;;;9.65;;
67721;SDS011;58309;45.292;11.820;2023-03-16T03:32:59;11.27;;;8.40;;
67721;SDS011;58309;45.292;11.820;2023-03-16T03:35:26;11.85;;;8.05;;
67721;SDS011;58309;45.292;11.820;2023-03-16T03:37:51;10.88;;;8.65;;
67721;SDS011;58309;45.292;11.820;2023-03-16T03:40:17;11.70;;;8.90;;
67721;SDS011;58309;45.292;11.820;2023-03-16T03:42:44;12.00;;;8.57;;
67721;SDS011;58309;45.292;11.820;2023-03-16T03:45:10;14.32;;;9.13;;
67721;SDS011;58309;45.292;11.820;2023-03-16T03:47:38;12.45;;;9.07;;
67721;SDS011;58309;45.292;11.820;2023-03-16T03:50:05;14.80;;;9.25;;
67721;SDS011;58309;45.292;11.820;2023-03-16T03:52:31;11.63;;;8.20;;
67721;SDS011;58309;45.292;11.820;2023-03-16T03:54:57;10.77;;;8.20;;
67721;SDS011;58309;45.292;11.820;2023-03-16T03:57:22;12.70;;;8.07;;
67721;SDS011;58309;45.292;11.820;2023-03-16T03:59:48;14.70;;;8.73;;
67721;SDS011;58309;45.292;11.820;2023-03-16T04:02:13;11.15;;;7.93;;
67721;SDS011;58309;45.292;11.820;2023-03-16T04:04:40;9.43;;;7.90;;
67721;SDS011;58309;45.292;11.820;2023-03-16T04:07:06;12.82;;;8.63;;
67721;SDS011;58309;45.292;11.820;2023-03-16T04:09:32;11.88;;;7.90;;
67721;SDS011;58309;45.292;11.820;2023-03-16T04:12:01;11.57;;;8.35;;
67721;SDS011;58309;45.292;11.820;2023-03-16T04:14:28;9.82;;;7.57;;
67721;SDS011;58309;45.292;11.820;2023-03-16T04:16:55;10.82;;;7.47;;
67721;SDS011;58309;45.292;11.820;2023-03-16T04:19:22;11.27;;;7.53;;
67721;SDS011;58309;45.292;11.820;2023-03-16T04:21:49;9.18;;;7.22;;
67721;SDS011;58309;45.292;11.820;2023-03-16T04:24:15;13.35;;;7.30;;
67721;SDS011;58309;45.292;11.820;2023-03-16T04:26:41;11.02;;;7.95;;
67721;SDS011;58309;45.292;11.820;2023-03-16T04:29:11;8.63;;;7.70;;
67721;SDS011;58309;45.292;11.820;2023-03-16T04:31:38;10.63;;;7.28;;
67721;SDS011;58309;45.292;11.820;2023-03-16T04:34:04;10.25;;;7.30;;
67721;SDS011;58309;45.292;11.820;2023-03-16T04:36:30;11.13;;;7.97;;
67721;SDS011;58309;45.292;11.820;2023-03-16T04:38:58;15.25;;;7.95;;
67721;SDS011;58309;45.292;11.820;2023-03-16T04:41:24;9.98;;;7.13;;
67721;SDS011;58309;45.292;11.820;2023-03-16T04:43:50;10.65;;;7.13;;
67721;SDS011;58309;45.292;11.820;2023-03-16T04:46:16;12.38;;;7.40;;
67721;SDS011;58309;45.292;11.820;2023-03-16T04:48:41;8.50;;;7.10;;
67721;SDS011;58309;45.292;11.820;2023-03-16T04:51:07;9.63;;;7.07;;
67721;SDS011;58309;45.292;11.820;2023-03-16T04:53:32;9.40;;;7.07;;
67721;SDS011;58309;45.292;11.820;2023-03-16T04:55:58;8.60;;;7.43;;
67721;SDS011;58309;45.292;11.820;2023-03-16T04:58:24;9.63;;;7.05;;
67721;SDS011;58309;45.292;11.820;2023-03-16T05:00:53;10.27;;;7.85;;
67721;SDS011;58309;45.292;11.820;2023-03-16T05:03:21;10.25;;;6.43;;
67721;SDS011;58309;45.292;11.820;2023-03-16T05:05:47;9.63;;;7.20;;
67721;SDS011;58309;45.292;11.820;2023-03-16T05:08:14;9.02;;;6.63;;
67721;SDS011;58309;45.292;11.820;2023-03-16T05:10:39;11.18;;;6.80;;
67721;SDS011;58309;45.292;11.820;2023-03-16T05:13:05;14.95;;;7.05;;
67721;SDS011;58309;45.292;11.820;2023-03-16T05:15:31;9.68;;;7.15;;
67721;SDS011;58309;45.292;11.820;2023-03-16T05:17:57;10.30;;;6.20;;
67721;SDS011;58309;45.292;11.820;2023-03-16T05:20:23;10.00;;;6.20;;
67721;SDS011;58309;45.292;11.820;2023-03-16T05:22:49;9.65;;;6.15;;
67721;SDS011;58309;45.292;11.820;2023-03-16T05:25:16;9.75;;;6.53;;
67721;SDS011;58309;45.292;11.820;2023-03-16T05:27:45;7.63;;;6.22;;
67721;SDS011;58309;45.292;11.820;2023-03-16T05:30:15;9.20;;;6.18;;
67721;SDS011;58309;45.292;11.820;2023-03-16T05:32:42;8.90;;;5.53;;
67721;SDS011;58309;45.292;11.820;2023-03-16T05:35:08;10.18;;;5.60;;
67721;SDS011;58309;45.292;11.820;2023-03-16T05:37:37;10.07;;;5.88;;
67721;SDS011;58309;45.292;11.820;2023-03-16T05:40:07;11.35;;;5.88;;
67721;SDS011;58309;45.292;11.820;2023-03-16T05:42:48;8.10;;;5.88;;
67721;SDS011;58309;45.292;11.820;2023-03-16T05:45:18;9.38;;;5.85;;
67721;SDS011;58309;45.292;11.820;2023-03-16T05:47:43;8.90;;;5.72;;
67721;SDS011;58309;45.292;11.820;2023-03-16T05:50:10;8.13;;;5.60;;
67721;SDS011;58309;45.292;11.820;2023-03-16T05:52:37;8.27;;;6.07;;
67721;SDS011;58309;45.292;11.820;2023-03-16T05:55:07;10.60;;;6.57;;
67721;SDS011;58309;45.292;11.820;2023-03-16T05:59:59;8.25;;;5.85;;
67721;SDS011;58309;45.292;11.820;2023-03-16T06:02:26;10.35;;;5.63;;
67721;SDS011;58309;45.292;11.820;2023-03-16T06:04:52;7.80;;;6.15;;
67721;SDS011;58309;45.292;11.820;2023-03-16T06:07:18;7.88;;;6.50;;
67721;SDS011;58309;45.292;11.820;2023-03-16T06:09:43;7.30;;;5.18;;
67721;SDS011;58309;45.292;11.820;2023-03-16T06:12:09;8.45;;;5.85;;
67721;SDS011;58309;45.292;11.820;2023-03-16T06:14:35;8.23;;;6.18;;
67721;SDS011;58309;45.292;11.820;2023-03-16T06:17:00;5.95;;;5.30;;
67721;SDS011;58309;45.292;11.820;2023-03-16T06:19:26;17.67;;;8.95;;
67721;SDS011;58309;45.292;11.820;2023-03-16T06:21:51;12.23;;;8.15;;
67721;SDS011;58309;45.292;11.820;2023-03-16T06:24:17;12.30;;;7.97;;
67721;SDS011;58309;45.292;11.820;2023-03-16T06:26:43;6.65;;;5.70;;
67721;SDS011;58309;45.292;11.820;2023-03-16T06:29:08;14.77;;;6.43;;
67721;SDS011;58309;45.292;11.820;2023-03-16T06:31:34;9.55;;;6.32;;
67721;SDS011;58309;45.292;11.820;2023-03-16T06:34:00;8.57;;;6.47;;
67721;SDS011;58309;45.292;11.820;2023-03-16T06:36:26;8.73;;;6.38;;
67721;SDS011;58309;45.292;11.820;2023-03-16T06:38:51;11.23;;;6.47;;
67721;SDS011;58309;45.292;11.820;2023-03-16T06:41:17;8.23;;;6.25;;
67721;SDS011;58309;45.292;11.820;2023-03-16T06:43:42;8.75;;;6.25;;
67721;SDS011;58309;45.292;11.820;2023-03-16T06:46:08;10.30;;;7.05;;
67721;SDS011;58309;45.292;11.820;2023-03-16T06:48:33;8.65;;;5.70;;
67721;SDS011;58309;45.292;11.820;2023-03-16T06:50:59;7.28;;;5.95;;
67721;SDS011;58309;45.292;11.820;2023-03-16T06:53:25;8.70;;;6.05;;
67721;SDS011;58309;45.292;11.820;2023-03-16T06:55:51;7.07;;;5.72;;
67721;SDS011;58309;45.292;11.820;2023-03-16T06:58:16;10.30;;;6.32;;
67721;SDS011;58309;45.292;11.820;2023-03-16T07:00:42;7.47;;;5.88;;
67721;SDS011;58309;45.292;11.820;2023-03-16T07:03:07;6.43;;;5.63;;
67721;SDS011;58309;45.292;11.820;2023-03-16T07:05:33;7.47;;;5.88;;
67721;SDS011;58309;45.292;11.820;2023-03-16T07:07:58;9.85;;;5.80;;
67721;SDS011;58309;45.292;11.820;2023-03-16T07:10:24;7.40;;;5.85;;
67721;SDS011;58309;45.292;11.820;2023-03-16T07:12:50;7.07;;;5.70;;
67721;SDS011;58309;45.292;11.820;2023-03-16T07:15:16;8.98;;;5.82;;
67721;SDS011;58309;45.292;11.820;2023-03-16T07:17:41;9.40;;;6.13;;
67721;SDS011;58309;45.292;11.820;2023-03-16T07:20:07;12.55;;;6.50;;
67721;SDS011;58309;45.292;11.820;2023-03-16T07:22:35;11.27;;;6.70;;
67721;SDS011;58309;45.292;11.820;2023-03-16T07:25:02;8.15;;;5.80;;
67721;SDS011;58309;45.292;11.820;2023-03-16T07:27:31;8.13;;;6.22;;
67721;SDS011;58309;45.292;11.820;2023-03-16T07:29:56;11.77;;;6.05;;
67721;SDS011;58309;45.292;11.820;2023-03-16T07:32:24;8.95;;;5.93;;
67721;SDS011;58309;45.292;11.820;2023-03-16T07:34:50;8.25;;;6.22;;
67721;SDS011;58309;45.292;11.820;2023-03-16T07:37:16;8.30;;;5.80;;
67721;SDS011;58309;45.292;11.820;2023-03-16T07:39:41;7.43;;;5.93;;
67721;SDS011;58309;45.292;11.820;2023-03-16T07:42:07;8.23;;;6.25;;
67721;SDS011;58309;45.292;11.820;2023-03-16T07:44:33;11.20;;;6.15;;
67721;SDS011;58309;45.292;11.820;2023-03-16T07:46:58;10.65;;;6.28;;
67721;SDS011;58309;45.292;11.820;2023-03-16T07:49:24;8.00;;;6.22;;
67721;SDS011;58309;45.292;11.820;2023-03-16T07:51:50;8.20;;;6.50;;
67721;SDS011;58309;45.292;11.820;2023-03-16T07:54:15;7.70;;;6.10;;
67721;SDS011;58309;45.292;11.820;2023-03-16T07:56:41;9.25;;;6.63;;
67721;SDS011;58309;45.292;11.820;2023-03-16T07:59:07;8.52;;;6.53;;
67721;SDS011;58309;45.292;11.820;2023-03-16T08:01:32;8.75;;;6.40;;
67721;SDS011;58309;45.292;11.820;2023-03-16T08:03:58;10.65;;;6.40;;
67721;SDS011;58309;45.292;11.820;2023-03-16T08:06:25;8.07;;;6.32;;
67721;SDS011;58309;45.292;11.820;2023-03-16T08:08:51;9.50;;;6.15;;
67721;SDS011;58309;45.292;11.820;2023-03-16T08:11:17;9.38;;;6.38;;
67721;SDS011;58309;45.292;11.820;2023-03-16T08:13:52;11.90;;;6.40;;
67721;SDS011;58309;45.292;11.820;2023-03-16T08:16:22;9.88;;;6.13;;
67721;SDS011;58309;45.292;11.820;2023-03-16T08:18:48;7.93;;;6.07;;
67721;SDS011;58309;45.292;11.820;2023-03-16T08:21:16;8.73;;;5.88;;
67721;SDS011;58309;45.292;11.820;2023-03-16T08:23:42;6.80;;;4.68;;
67721;SDS011;58309;45.292;11.820;2023-03-16T08:26:13;9.38;;;5.35;;
67721;SDS011;58309;45.292;11.820;2023-03-16T08:28:41;7.22;;;5.70;;
67721;SDS011;58309;45.292;11.820;2023-03-16T08:31:09;10.13;;;5.53;;
67721;SDS011;58309;45.292;11.820;2023-03-16T08:33:36;6.03;;;4.60;;
67721;SDS011;58309;45.292;11.820;2023-03-16T08:36:04;7.93;;;4.40;;
67721;SDS011;58309;45.292;11.820;2023-03-16T08:38:31;4.30;;;3.33;;
67721;SDS011;58309;45.292;11.820;2023-03-16T08:40:57;5.35;;;3.53;;
67721;SDS011;58309;45.292;11.820;2023-03-16T08:43:24;3.90;;;3.25;;
67721;SDS011;58309;45.292;11.820;2023-03-16T08:45:51;4.95;;;3.38;;
67721;SDS011;58309;45.292;11.820;2023-03-16T08:48:18;4.28;;;2.85;;
67721;SDS011;58309;45.292;11.820;2023-03-16T08:50:44;4.40;;;2.00;;
67721;SDS011;58309;45.292;11.820;2023-03-16T08:53:11;6.47;;;1.80;;
67721;SDS011;58309;45.292;11.820;2023-03-16T08:55:38;1.60;;;1.50;;
67721;SDS011;58309;45.292;11.820;2023-03-16T08:58:06;2.05;;;1.92;;
67721;SDS011;58309;45.292;11.820;2023-03-16T09:00:32;2.50;;;1.90;;
67721;SDS011;58309;45.292;11.820;2023-03-16T09:02:58;2.35;;;2.03;;
67721;SDS011;58309;45.292;11.820;2023-03-16T09:05:24;4.05;;;1.90;;
67721;SDS011;58309;45.292;11.820;2023-03-16T09:07:55;3.35;;;1.90;;
67721;SDS011;58309;45.292;11.820;2023-03-16T09:10:23;4.35;;;2.17;;
67721;SDS011;58309;45.292;11.820;2023-03-16T09:12:49;2.80;;;2.25;;
67721;SDS011;58309;45.292;11.820;2023-03-16T09:15:16;3.80;;;2.38;;
67721;SDS011;58309;45.292;11.820;2023-03-16T09:17:47;2.78;;;2.50;;
67721;SDS011;58309;45.292;11.820;2023-03-16T09:20:16;3.67;;;2.70;;
67721;SDS011;58309;45.292;11.820;2023-03-16T09:22:45;3.17;;;2.90;;
67721;SDS011;58309;45.292;11.820;2023-03-16T09:25:11;4.82;;;3.17;;
67721;SDS011;58309;45.292;11.820;2023-03-16T09:27:39;5.70;;;2.75;;
67721;SDS011;58309;45.292;11.820;2023-03-16T09:30:05;3.58;;;2.85;;
67721;SDS011;58309;45.292;11.820;2023-03-16T09:32:32;5.18;;;3.20;;
67721;SDS011;58309;45.292;11.820;2023-03-16T09:34:58;3.50;;;2.97;;
67721;SDS011;58309;45.292;11.820;2023-03-16T09:37:24;6.57;;;2.80;;
67721;SDS011;58309;45.292;11.820;2023-03-16T09:39:50;4.55;;;2.78;;
67721;SDS011;58309;45.292;11.820;2023-03-16T09:42:24;4.25;;;2.72;;
67721;SDS011;58309;45.292;11.820;2023-03-16T09:47:30;4.55;;;2.40;;
67721;SDS011;58309;45.292;11.820;2023-03-16T09:49:59;3.28;;;2.22;;
67721;SDS011;58309;45.292;11.820;2023-03-16T09:57:38;3.67;;;2.72;;
67721;SDS011;58309;45.292;11.820;2023-03-16T10:05:51;2.70;;;2.15;;
67721;SDS011;58309;45.292;11.820;2023-03-16T10:08:22;4.20;;;2.00;;
67721;SDS011;58309;45.292;11.820;2023-03-16T10:13:39;1.83;;;1.70;;
67721;SDS011;58309;45.292;11.820;2023-03-16T10:16:09;1.90;;;1.80;;
67721;SDS011;58309;45.292;11.820;2023-03-16T10:18:49;2.65;;;2.00;;
67721;SDS011;58309;45.292;11.820;2023-03-16T10:21:22;5.03;;;2.15;;
67721;SDS011;58309;45.292;11.820;2023-03-16T10:23:48;3.85;;;2.00;;
67721;SDS011;58309;45.292;11.820;2023-03-16T10:26:21;1.92;;;1.80;;
67721;SDS011;58309;45.292;11.820;2023-03-16T10:28:50;2.13;;;1.80;;
67721;SDS011;58309;45.292;11.820;2023-03-16T10:31:18;3.97;;;1.80;;
67721;SDS011;58309;45.292;11.820;2023-03-16T10:33:47;3.17;;;1.90;;
67721;SDS011;58309;45.292;11.820;2023-03-16T10:39:08;2.75;;;1.85;;
67721;SDS011;58309;45.292;11.820;2023-03-16T10:41:37;2.25;;;1.95;;
67721;SDS011;58309;45.292;11.820;2023-03-16T10:44:09;3.63;;;1.80;;
67721;SDS011;58309;45.292;11.820;2023-03-16T10:51:52;2.03;;;1.52;;
67721;SDS011;58309;45.292;11.820;2023-03-16T10:54:28;1.98;;;1.88;;
67721;SDS011;58309;45.292;11.820;2023-03-16T10:56:57;3.38;;;1.60;;
67721;SDS011;58309;45.292;11.820;2023-03-16T10:59:31;2.38;;;1.90;;
67721;SDS011;58309;45.292;11.820;2023-03-16T11:02:06;1.73;;;1.63;;
67721;SDS011;58309;45.292;11.820;2023-03-16T11:04:40;1.70;;;1.60;;
67721;SDS011;58309;45.292;11.820;2023-03-16T11:07:06;8.48;;;6.35;;
67721;SDS011;58309;45.292;11.820;2023-03-16T11:09:39;1.92;;;1.70;;
67721;SDS011;58309;45.292;11.820;2023-03-16T11:12:11;2.83;;;1.70;;
67721;SDS011;58309;45.292;11.820;2023-03-16T11:14:41;1.80;;;1.70;;
67721;SDS011;58309;45.292;11.820;2023-03-16T11:17:09;2.35;;;1.77;;
67721;SDS011;58309;45.292;11.820;2023-03-16T11:22:15;1.83;;;1.50;;
67721;SDS011;58309;45.292;11.820;2023-03-16T11:27:47;2.97;;;1.83;;
67721;SDS011;58309;45.292;11.820;2023-03-16T11:30:35;1.83;;;1.60;;
67721;SDS011;58309;45.292;11.820;2023-03-16T11:33:08;2.58;;;2.00;;
67721;SDS011;58309;45.292;11.820;2023-03-16T11:35:47;3.90;;;2.33;;
67721;SDS011;58309;45.292;11.820;2023-03-16T11:38:20;2.83;;;2.33;;
67721;SDS011;58309;45.292;11.820;2023-03-16T11:40:59;4.30;;;3.53;;
67721;SDS011;58309;45.292;11.820;2023-03-16T11:46:25;1.80;;;1.70;;
67721;SDS011;58309;45.292;11.820;2023-03-16T11:54:52;2.20;;;1.60;;
67721;SDS011;58309;45.292;11.820;2023-03-16T12:03:43;3.95;;;2.45;;
67721;SDS011;58309;45.292;11.820;2023-03-16T12:11:51;1.90;;;1.80;;
67721;SDS011;58309;45.292;11.820;2023-03-16T12:17:01;2.75;;;1.90;;
67721;SDS011;58309;45.292;11.820;2023-03-16T12:19:40;2.10;;;1.90;;
67721;SDS011;58309;45.292;11.820;2023-03-16T12:22:20;2.38;;;1.77;;
67721;SDS011;58309;45.292;11.820;2023-03-16T12:24:52;2.53;;;1.70;;
67721;SDS011;58309;45.292;11.820;2023-03-16T12:38:39;2.38;;;2.17;;
67721;SDS011;58309;45.292;11.820;2023-03-16T12:44:00;2.60;;;1.70;;
67721;SDS011;58309;45.292;11.820;2023-03-16T12:49:24;2.45;;;1.88;;
67721;SDS011;58309;45.292;11.820;2023-03-16T12:54:25;4.07;;;2.03;;
67721;SDS011;58309;45.292;11.820;2023-03-16T12:56:53;2.35;;;2.00;;
67721;SDS011;58309;45.292;11.820;2023-03-16T13:02:01;3.38;;;2.00;;
67721;SDS011;58309;45.292;11.820;2023-03-16T13:04:37;2.30;;;2.10;;
67721;SDS011;58309;45.292;11.820;2023-03-16T13:07:08;2.97;;;1.88;;
67721;SDS011;58309;45.292;11.820;2023-03-16T13:09:50;1.83;;;1.73;;
67721;SDS011;58309;45.292;11.820;2023-03-16T13:12:38;2.92;;;1.90;;
67721;SDS011;58309;45.292;11.820;2023-03-16T13:17:47;9.73;;;6.95;;
67721;SDS011;58309;45.292;11.820;2023-03-16T13:28:38;4.80;;;2.20;;
67721;SDS011;58309;45.292;11.820;2023-03-16T13:31:05;2.30;;;2.10;;
67721;SDS011;58309;45.292;11.820;2023-03-16T13:33:44;2.47;;;2.20;;
67721;SDS011;58309;45.292;11.820;2023-03-16T13:36:11;2.95;;;2.08;;
67721;SDS011;58309;45.292;11.820;2023-03-16T13:38:38;2.65;;;2.45;;
67721;SDS011;58309;45.292;11.820;2023-03-16T13:41:04;3.78;;;2.25;;
67721;SDS011;58309;45.292;11.820;2023-03-16T13:43:36;3.85;;;2.50;;
67721;SDS011;58309;45.292;11.820;2023-03-16T13:46:16;2.50;;;2.10;;
67721;SDS011;58309;45.292;11.820;2023-03-16T13:51:18;2.72;;;2.00;;
67721;SDS011;58309;45.292;11.820;2023-03-16T13:53:46;2.30;;;2.10;;
67721;SDS011;58309;45.292;11.820;2023-03-16T13:56:14;2.80;;;2.40;;
67721;SDS011;58309;45.292;11.820;2023-03-16T13:58:44;2.80;;;2.20;;
67721;SDS011;58309;45.292;11.820;2023-03-16T14:01:17;2.38;;;2.05;;
67721;SDS011;58309;45.292;11.820;2023-03-16T14:03:49;2.97;;;1.90;;
67721;SDS011;58309;45.292;11.820;2023-03-16T14:06:33;7.63;;;2.65;;
67721;SDS011;58309;45.292;11.820;2023-03-16T14:09:20;2.40;;;1.95;;
67721;SDS011;58309;45.292;11.820;2023-03-16T14:11:46;4.85;;;2.97;;
67721;SDS011;58309;45.292;11.820;2023-03-16T14:14:14;2.92;;;2.38;;
67721;SDS011;58309;45.292;11.820;2023-03-16T14:16:41;3.55;;;2.30;;
67721;SDS011;58309;45.292;11.820;2023-03-16T14:19:15;4.50;;;3.20;;
67721;SDS011;58309;45.292;11.820;2023-03-16T14:21:50;3.60;;;2.65;;
67721;SDS011;58309;45.292;11.820;2023-03-16T14:24:29;3.40;;;2.30;;
67721;SDS011;58309;45.292;11.820;2023-03-16T14:27:07;3.17;;;2.10;;
67721;SDS011;58309;45.292;11.820;2023-03-16T14:29:41;1.90;;;1.80;;
67721;SDS011;58309;45.292;11.820;2023-03-16T14:32:21;2.83;;;1.83;;
67721;SDS011;58309;45.292;11.820;2023-03-16T14:34:52;2.63;;;1.90;;
67721;SDS011;58309;45.292;11.820;2023-03-16T14:37:32;2.00;;;1.90;;
67721;SDS011;58309;45.292;11.820;2023-03-16T14:40:00;2.75;;;2.05;;
67721;SDS011;58309;45.292;11.820;2023-03-16T14:42:30;3.15;;;2.33;;
67721;SDS011;58309;45.292;11.820;2023-03-16T14:44:59;3.15;;;2.45;;
67721;SDS011;58309;45.292;11.820;2023-03-16T14:47:29;5.15;;;2.72;;
67721;SDS011;58309;45.292;11.820;2023-03-16T14:49:57;3.92;;;2.75;;
67721;SDS011;58309;45.292;11.820;2023-03-16T14:52:30;3.05;;;2.47;;
67721;SDS011;58309;45.292;11.820;2023-03-16T14:54:56;2.60;;;2.40;;
67721;SDS011;58309;45.292;11.820;2023-03-16T14:57:23;4.15;;;2.40;;
67721;SDS011;58309;45.292;11.820;2023-03-16T14:59:50;2.35;;;2.10;;
67721;SDS011;58309;45.292;11.820;2023-03-16T15:04:51;5.25;;;2.08;;
67721;SDS011;58309;45.292;11.820;2023-03-16T15:07:29;3.42;;;1.90;;
67721;SDS011;58309;45.292;11.820;2023-03-16T15:10:40;1.92;;;1.70;;
67721;SDS011;58309;45.292;11.820;2023-03-16T15:12:51;2.30;;;1.85;;
67721;SDS011;58309;45.292;11.820;2023-03-16T15:15:28;4.38;;;2.53;;
67721;SDS011;58309;45.292;11.820;2023-03-16T15:17:54;3.92;;;2.35;;
67721;SDS011;58309;45.292;11.820;2023-03-16T15:20:21;5.32;;;2.10;;
67721;SDS011;58309;45.292;11.820;2023-03-16T15:22:53;4.72;;;2.55;;
67721;SDS011;58309;45.292;11.820;2023-03-16T15:25:33;6.95;;;3.70;;
67721;SDS011;58309;45.292;11.820;2023-03-16T15:28:16;9.55;;;3.35;;
67721;SDS011;58309;45.292;11.820;2023-03-16T15:30:49;2.95;;;1.77;;
67721;SDS011;58309;45.292;11.820;2023-03-16T15:33:17;4.28;;;2.33;;
67721;SDS011;58309;45.292;11.820;2023-03-16T15:35:44;2.80;;;2.00;;
67721;SDS011;58309;45.292;11.820;2023-03-16T15:38:15;2.28;;;2.03;;
67721;SDS011;58309;45.292;11.820;2023-03-16T15:40:50;4.53;;;2.25;;
67721;SDS011;58309;45.292;11.820;2023-03-16T15:43:27;3.55;;;1.77;;
67721;SDS011;58309;45.292;11.820;2023-03-16T15:45:56;2.08;;;1.70;;
67721;SDS011;58309;45.292;11.820;2023-03-16T15:48:23;1.80;;;1.70;;
67721;SDS011;58309;45.292;11.820;2023-03-16T15:50:56;3.35;;;1.77;;
67721;SDS011;58309;45.292;11.820;2023-03-16T15:55:58;1.50;;;1.40;;
67721;SDS011;58309;45.292;11.820;2023-03-16T15:58:27;3.58;;;1.90;;
67721;SDS011;58309;45.292;11.820;2023-03-16T16:00:55;2.70;;;1.90;;
67721;SDS011;58309;45.292;11.820;2023-03-16T16:03:22;3.13;;;1.85;;
67721;SDS011;58309;45.292;11.820;2023-03-16T16:05:48;4.97;;;1.60;;
67721;SDS011;58309;45.292;11.820;2023-03-16T16:08:14;1.60;;;1.50;;
67721;SDS011;58309;45.292;11.820;2023-03-16T16:10:40;4.32;;;2.10;;
67721;SDS011;58309;45.292;11.820;2023-03-16T16:13:12;2.83;;;1.75;;
67721;SDS011;58309;45.292;11.820;2023-03-16T16:15:43;2.13;;;1.67;;
67721;SDS011;58309;45.292;11.820;2023-03-16T16:18:28;1.50;;;1.40;;
67721;SDS011;58309;45.292;11.820;2023-03-16T16:20:59;2.45;;;1.70;;
67721;SDS011;58309;45.292;11.820;2023-03-16T16:23:26;3.70;;;2.40;;
67721;SDS011;58309;45.292;11.820;2023-03-16T16:25:54;1.85;;;1.73;;
67721;SDS011;58309;45.292;11.820;2023-03-16T16:28:24;1.50;;;1.40;;
67721;SDS011;58309;45.292;11.820;2023-03-16T16:30:52;2.53;;;1.58;;
67721;SDS011;58309;45.292;11.820;2023-03-16T16:33:22;2.28;;;1.85;;